<?xml version="1.0" encoding="utf-8"?>
<gpx xmlns:xsi="http://www.w3.org/2001/XMLSchema-instance" xmlns:xsd="http://www.w3.org/2001/XMLSchema" version="1.1" creator="Shapelink.com" xmlns="http://www.topografix.com/GPX/1/1" xmlns:gpxtpx="http://www.garmin.com/xmlschemas/TrackPointExtension/v1">
  <metadata>
    <name>Övrigt 5.64 km, 2019-05-11</name>
    <desc></desc>
    <author><name>Marian Moron</name></author> 
    <time>2019-05-11T10:40:39Z</time>
  </metadata>
  <trk>
    <name>Övrigt 5.64 km, 2019-05-11</name>
    <trkseg>
      <trkpt lat="51.229848001375" lon="4.458092971479">
        <ele>0</ele>
        <time>2019-05-11T10:40:39Z</time>
      </trkpt>
      <trkpt lat="51.229922684104" lon="4.458393378775">
        <ele>0.4</ele>
        <time>2019-05-11T10:40:56Z</time>
      </trkpt>
      <trkpt lat="51.229940537551" lon="4.458409136747">
        <ele>0</ele>
        <time>2019-05-11T10:40:59Z</time>
      </trkpt>
      <trkpt lat="51.229958642455" lon="4.458424224167">
        <ele>0</ele>
        <time>2019-05-11T10:41:01Z</time>
      </trkpt>
      <trkpt lat="51.230013711538" lon="4.458740640892">
        <ele>0</ele>
        <time>2019-05-11T10:41:20Z</time>
      </trkpt>
      <trkpt lat="51.23042760976" lon="4.458935603886">
        <ele>0</ele>
        <time>2019-05-11T10:41:58Z</time>
      </trkpt>
      <trkpt lat="51.230534562804" lon="4.459375485998">
        <ele>0</ele>
        <time>2019-05-11T10:42:22Z</time>
      </trkpt>
      <trkpt lat="51.230580579435" lon="4.459493838426">
        <ele>0</ele>
        <time>2019-05-11T10:42:30Z</time>
      </trkpt>
      <trkpt lat="51.230582339634" lon="4.45953708903">
        <ele>0</ele>
        <time>2019-05-11T10:42:32Z</time>
      </trkpt>
      <trkpt lat="51.23061033518" lon="4.459684191375">
        <ele>0</ele>
        <time>2019-05-11T10:42:40Z</time>
      </trkpt>
      <trkpt lat="51.230675714" lon="4.459731465291">
        <ele>0</ele>
        <time>2019-05-11T10:42:49Z</time>
      </trkpt>
      <trkpt lat="51.230681162235" lon="4.459867252071">
        <ele>0</ele>
        <time>2019-05-11T10:44:13Z</time>
      </trkpt>
      <trkpt lat="51.230652663775" lon="4.459872867944">
        <ele>0</ele>
        <time>2019-05-11T10:44:16Z</time>
      </trkpt>
      <trkpt lat="51.230675881638" lon="4.460007481258">
        <ele>0</ele>
        <time>2019-05-11T10:44:42Z</time>
      </trkpt>
      <trkpt lat="51.230761628475" lon="4.460663700209">
        <ele>0</ele>
        <time>2019-05-11T10:45:33Z</time>
      </trkpt>
      <trkpt lat="51.230945694999" lon="4.461294354365">
        <ele>0</ele>
        <time>2019-05-11T10:46:17Z</time>
      </trkpt>
      <trkpt lat="51.231034543139" lon="4.461698864859">
        <ele>0</ele>
        <time>2019-05-11T10:46:49Z</time>
      </trkpt>
      <trkpt lat="51.230977881495" lon="4.461813948346">
        <ele>0</ele>
        <time>2019-05-11T10:46:58Z</time>
      </trkpt>
      <trkpt lat="51.230533305519" lon="4.46198125107">
        <ele>0</ele>
        <time>2019-05-11T10:47:30Z</time>
      </trkpt>
      <trkpt lat="51.230191743094" lon="4.462202030316">
        <ele>0</ele>
        <time>2019-05-11T10:47:59Z</time>
      </trkpt>
      <trkpt lat="51.230066014594" lon="4.462294817949">
        <ele>0.2</ele>
        <time>2019-05-11T10:48:11Z</time>
      </trkpt>
      <trkpt lat="51.230097865814" lon="4.462424066847">
        <ele>0</ele>
        <time>2019-05-11T10:48:19Z</time>
      </trkpt>
      <trkpt lat="51.23009149557" lon="4.462542419275">
        <ele>0</ele>
        <time>2019-05-11T10:48:30Z</time>
      </trkpt>
      <trkpt lat="51.230107672637" lon="4.462631937967">
        <ele>0</ele>
        <time>2019-05-11T10:49:00Z</time>
      </trkpt>
      <trkpt lat="51.230070624639" lon="4.462682145548">
        <ele>0</ele>
        <time>2019-05-11T10:50:02Z</time>
      </trkpt>
      <trkpt lat="51.230072636295" lon="4.462681307358">
        <ele>0</ele>
        <time>2019-05-11T10:50:03Z</time>
      </trkpt>
      <trkpt lat="51.230080682919" lon="4.462731179663">
        <ele>0</ele>
        <time>2019-05-11T10:50:11Z</time>
      </trkpt>
      <trkpt lat="51.230135332907" lon="4.462897979473">
        <ele>0</ele>
        <time>2019-05-11T10:50:36Z</time>
      </trkpt>
      <trkpt lat="51.230169782516" lon="4.463004261965">
        <ele>0</ele>
        <time>2019-05-11T10:50:42Z</time>
      </trkpt>
      <trkpt lat="51.230239352286" lon="4.46333828068">
        <ele>0</ele>
        <time>2019-05-11T10:51:00Z</time>
      </trkpt>
      <trkpt lat="51.23038570026" lon="4.46381940174">
        <ele>0</ele>
        <time>2019-05-11T10:51:28Z</time>
      </trkpt>
      <trkpt lat="51.230409421037" lon="4.463900035618">
        <ele>0</ele>
        <time>2019-05-11T10:51:33Z</time>
      </trkpt>
      <trkpt lat="51.230592984647" lon="4.464399177763">
        <ele>0</ele>
        <time>2019-05-11T10:52:09Z</time>
      </trkpt>
      <trkpt lat="51.230732375644" lon="4.464917849735">
        <ele>0</ele>
        <time>2019-05-11T10:52:39Z</time>
      </trkpt>
      <trkpt lat="51.23078886965" lon="4.465590916305">
        <ele>2.2</ele>
        <time>2019-05-11T10:53:14Z</time>
      </trkpt>
      <trkpt lat="51.230758443353" lon="4.466216541321">
        <ele>5</ele>
        <time>2019-05-11T10:53:48Z</time>
      </trkpt>
      <trkpt lat="51.23076204757" lon="4.466287452195">
        <ele>3.4</ele>
        <time>2019-05-11T10:53:53Z</time>
      </trkpt>
      <trkpt lat="51.230759449181" lon="4.466320895976">
        <ele>2</ele>
        <time>2019-05-11T10:53:55Z</time>
      </trkpt>
      <trkpt lat="51.230724664296" lon="4.467042158471">
        <ele>0</ele>
        <time>2019-05-11T10:54:26Z</time>
      </trkpt>
      <trkpt lat="51.230759449181" lon="4.467549179602">
        <ele>0</ele>
        <time>2019-05-11T10:54:57Z</time>
      </trkpt>
      <trkpt lat="51.231200840035" lon="4.467425043663">
        <ele>0</ele>
        <time>2019-05-11T10:55:38Z</time>
      </trkpt>
      <trkpt lat="51.231639381043" lon="4.467427642052">
        <ele>0</ele>
        <time>2019-05-11T10:56:10Z</time>
      </trkpt>
      <trkpt lat="51.231650864246" lon="4.467434682848">
        <ele>0</ele>
        <time>2019-05-11T10:56:11Z</time>
      </trkpt>
      <trkpt lat="51.231748429562" lon="4.467483633144">
        <ele>0</ele>
        <time>2019-05-11T10:56:20Z</time>
      </trkpt>
      <trkpt lat="51.23151474219" lon="4.468130045272">
        <ele>0</ele>
        <time>2019-05-11T10:56:45Z</time>
      </trkpt>
      <trkpt lat="51.231238558585" lon="4.468725830724">
        <ele>0.2</ele>
        <time>2019-05-11T10:57:04Z</time>
      </trkpt>
      <trkpt lat="51.23099003525" lon="4.469072673746">
        <ele>0.6</ele>
        <time>2019-05-11T10:57:28Z</time>
      </trkpt>
      <trkpt lat="51.230573957734" lon="4.469378696915">
        <ele>0</ele>
        <time>2019-05-11T10:57:59Z</time>
      </trkpt>
      <trkpt lat="51.23015771258" lon="4.469664352067">
        <ele>0</ele>
        <time>2019-05-11T10:58:33Z</time>
      </trkpt>
      <trkpt lat="51.229740377779" lon="4.469951264504">
        <ele>0</ele>
        <time>2019-05-11T10:59:06Z</time>
      </trkpt>
      <trkpt lat="51.229291191758" lon="4.470022510654">
        <ele>0</ele>
        <time>2019-05-11T10:59:27Z</time>
      </trkpt>
      <trkpt lat="51.228841670461" lon="4.469946905916">
        <ele>0</ele>
        <time>2019-05-11T10:59:48Z</time>
      </trkpt>
      <trkpt lat="51.228613598962" lon="4.469856716672">
        <ele>0</ele>
        <time>2019-05-11T11:00:33Z</time>
      </trkpt>
      <trkpt lat="51.228595577877" lon="4.469847077487">
        <ele>0</ele>
        <time>2019-05-11T11:00:35Z</time>
      </trkpt>
      <trkpt lat="51.228375050088" lon="4.469504425415">
        <ele>4.4</ele>
        <time>2019-05-11T11:01:05Z</time>
      </trkpt>
      <trkpt lat="51.228247309932" lon="4.469148278484">
        <ele>4</ele>
        <time>2019-05-11T11:01:22Z</time>
      </trkpt>
      <trkpt lat="51.228138009956" lon="4.468965972159">
        <ele>4.6</ele>
        <time>2019-05-11T11:01:36Z</time>
      </trkpt>
      <trkpt lat="51.22801781351" lon="4.468373204191">
        <ele>0</ele>
        <time>2019-05-11T11:02:05Z</time>
      </trkpt>
      <trkpt lat="51.227822850516" lon="4.467717488154">
        <ele>2.2</ele>
        <time>2019-05-11T11:02:41Z</time>
      </trkpt>
      <trkpt lat="51.227773732582" lon="4.467410291519">
        <ele>1.2</ele>
        <time>2019-05-11T11:02:55Z</time>
      </trkpt>
      <trkpt lat="51.227848666768" lon="4.467127150937">
        <ele>4.2</ele>
        <time>2019-05-11T11:03:09Z</time>
      </trkpt>
      <trkpt lat="51.227926869895" lon="4.467142238357">
        <ele>0.2</ele>
        <time>2019-05-11T11:03:14Z</time>
      </trkpt>
      <trkpt lat="51.227978837675" lon="4.467171575007">
        <ele>0</ele>
        <time>2019-05-11T11:03:17Z</time>
      </trkpt>
      <trkpt lat="51.228093585886" lon="4.467248185573">
        <ele>0</ele>
        <time>2019-05-11T11:03:26Z</time>
      </trkpt>
      <trkpt lat="51.228420228529" lon="4.467483465506">
        <ele>0</ele>
        <time>2019-05-11T11:03:56Z</time>
      </trkpt>
      <trkpt lat="51.228477225449" lon="4.467504001161">
        <ele>0</ele>
        <time>2019-05-11T11:04:00Z</time>
      </trkpt>
      <trkpt lat="51.228874192233" lon="4.467671136247">
        <ele>3</ele>
        <time>2019-05-11T11:04:27Z</time>
      </trkpt>
      <trkpt lat="51.229311895051" lon="4.467815724022">
        <ele>3.8</ele>
        <time>2019-05-11T11:05:02Z</time>
      </trkpt>
      <trkpt lat="51.229763679461" lon="4.467798457308">
        <ele>0</ele>
        <time>2019-05-11T11:05:43Z</time>
      </trkpt>
      <trkpt lat="51.230215463871" lon="4.467661161786">
        <ele>0</ele>
        <time>2019-05-11T11:06:19Z</time>
      </trkpt>
      <trkpt lat="51.23030355764" lon="4.467618665553">
        <ele>0</ele>
        <time>2019-05-11T11:06:26Z</time>
      </trkpt>
      <trkpt lat="51.230343706941" lon="4.467626879815">
        <ele>0</ele>
        <time>2019-05-11T11:06:30Z</time>
      </trkpt>
      <trkpt lat="51.230779901017" lon="4.467458403625">
        <ele>0</ele>
        <time>2019-05-11T11:07:06Z</time>
      </trkpt>
      <trkpt lat="51.230872185736" lon="4.467434599029">
        <ele>0</ele>
        <time>2019-05-11T11:07:14Z</time>
      </trkpt>
      <trkpt lat="51.230941168773" lon="4.467448596802">
        <ele>0</ele>
        <time>2019-05-11T11:07:20Z</time>
      </trkpt>
      <trkpt lat="51.231226321011" lon="4.467376931557">
        <ele>0</ele>
        <time>2019-05-11T11:07:44Z</time>
      </trkpt>
      <trkpt lat="51.2312540651" lon="4.467367543829">
        <ele>0</ele>
        <time>2019-05-11T11:07:46Z</time>
      </trkpt>
      <trkpt lat="51.231503929539" lon="4.467398389221">
        <ele>0</ele>
        <time>2019-05-11T11:08:25Z</time>
      </trkpt>
      <trkpt lat="51.231777766212" lon="4.467481537669">
        <ele>0</ele>
        <time>2019-05-11T11:08:44Z</time>
      </trkpt>
      <trkpt lat="51.231961162184" lon="4.467559908434">
        <ele>0.2</ele>
        <time>2019-05-11T11:09:10Z</time>
      </trkpt>
      <trkpt lat="51.232064008097" lon="4.467686558943">
        <ele>1</ele>
        <time>2019-05-11T11:09:20Z</time>
      </trkpt>
      <trkpt lat="51.232334156734" lon="4.468086710849">
        <ele>2.6</ele>
        <time>2019-05-11T11:09:44Z</time>
      </trkpt>
      <trkpt lat="51.232644706129" lon="4.468641927905">
        <ele>8.8</ele>
        <time>2019-05-11T11:10:23Z</time>
      </trkpt>
      <trkpt lat="51.232907730151" lon="4.469239054461">
        <ele>14</ele>
        <time>2019-05-11T11:11:02Z</time>
      </trkpt>
      <trkpt lat="51.233157426952" lon="4.469842215985">
        <ele>11.4</ele>
        <time>2019-05-11T11:11:43Z</time>
      </trkpt>
      <trkpt lat="51.233404944459" lon="4.470444874595">
        <ele>5.2</ele>
        <time>2019-05-11T11:12:26Z</time>
      </trkpt>
      <trkpt lat="51.233695880208" lon="4.470991374475">
        <ele>5</ele>
        <time>2019-05-11T11:13:06Z</time>
      </trkpt>
      <trkpt lat="51.233774083335" lon="4.471194970826">
        <ele>5.2</ele>
        <time>2019-05-11T11:13:19Z</time>
      </trkpt>
      <trkpt lat="51.234050350759" lon="4.471751528986">
        <ele>9.6</ele>
        <time>2019-05-11T11:14:00Z</time>
      </trkpt>
      <trkpt lat="51.234091170612" lon="4.471724539268">
        <ele>9.2</ele>
        <time>2019-05-11T11:14:50Z</time>
      </trkpt>
      <trkpt lat="51.234060492858" lon="4.471672822945">
        <ele>8.4</ele>
        <time>2019-05-11T11:14:55Z</time>
      </trkpt>
      <trkpt lat="51.233998634436" lon="4.47157349743">
        <ele>6.4</ele>
        <time>2019-05-11T11:15:06Z</time>
      </trkpt>
      <trkpt lat="51.233763689779" lon="4.471099668623">
        <ele>2.4</ele>
        <time>2019-05-11T11:15:41Z</time>
      </trkpt>
      <trkpt lat="51.233601667652" lon="4.47082331738">
        <ele>6.2</ele>
        <time>2019-05-11T11:16:03Z</time>
      </trkpt>
      <trkpt lat="51.233385666089" lon="4.470177827261">
        <ele>1.4</ele>
        <time>2019-05-11T11:16:45Z</time>
      </trkpt>
      <trkpt lat="51.233238647563" lon="4.469862416364">
        <ele>4.2</ele>
        <time>2019-05-11T11:17:07Z</time>
      </trkpt>
      <trkpt lat="51.233178130245" lon="4.469645744249">
        <ele>5.8</ele>
        <time>2019-05-11T11:17:21Z</time>
      </trkpt>
      <trkpt lat="51.233101016765" lon="4.469486320511">
        <ele>7.4</ele>
        <time>2019-05-11T11:17:33Z</time>
      </trkpt>
      <trkpt lat="51.232936731525" lon="4.469056915774">
        <ele>12</ele>
        <time>2019-05-11T11:18:01Z</time>
      </trkpt>
      <trkpt lat="51.232935222783" lon="4.469013832808">
        <ele>12.2</ele>
        <time>2019-05-11T11:18:03Z</time>
      </trkpt>
      <trkpt lat="51.232917956069" lon="4.468982735959">
        <ele>12.2</ele>
        <time>2019-05-11T11:18:05Z</time>
      </trkpt>
      <trkpt lat="51.232876968578" lon="4.468956165336">
        <ele>10.4</ele>
        <time>2019-05-11T11:18:08Z</time>
      </trkpt>
      <trkpt lat="51.232851403783" lon="4.468888271946">
        <ele>11.4</ele>
        <time>2019-05-11T11:18:13Z</time>
      </trkpt>
      <trkpt lat="51.232668007811" lon="4.468631366711">
        <ele>7.2</ele>
        <time>2019-05-11T11:18:45Z</time>
      </trkpt>
      <trkpt lat="51.232743444911" lon="4.468771763536">
        <ele>8.4</ele>
        <time>2019-05-11T11:19:08Z</time>
      </trkpt>
      <trkpt lat="51.232929774548" lon="4.469166551026">
        <ele>6.8</ele>
        <time>2019-05-11T11:19:37Z</time>
      </trkpt>
      <trkpt lat="51.233033291013" lon="4.469348019161">
        <ele>4</ele>
        <time>2019-05-11T11:19:53Z</time>
      </trkpt>
      <trkpt lat="51.23322297341" lon="4.469697544391">
        <ele>2.2</ele>
        <time>2019-05-11T11:20:17Z</time>
      </trkpt>
      <trkpt lat="51.233353144317" lon="4.469940284215">
        <ele>5.2</ele>
        <time>2019-05-11T11:20:35Z</time>
      </trkpt>
      <trkpt lat="51.233605020412" lon="4.470535315296">
        <ele>0.8</ele>
        <time>2019-05-11T11:21:16Z</time>
      </trkpt>
      <trkpt lat="51.233887909537" lon="4.47110746379">
        <ele>4.6</ele>
        <time>2019-05-11T11:21:59Z</time>
      </trkpt>
      <trkpt lat="51.233915066893" lon="4.471201257251">
        <ele>4.4</ele>
        <time>2019-05-11T11:22:06Z</time>
      </trkpt>
      <trkpt lat="51.233963681913" lon="4.47129270378">
        <ele>5</ele>
        <time>2019-05-11T11:22:12Z</time>
      </trkpt>
      <trkpt lat="51.234007770707" lon="4.471443661799">
        <ele>4.4</ele>
        <time>2019-05-11T11:22:27Z</time>
      </trkpt>
      <trkpt lat="51.233962173171" lon="4.47151566232">
        <ele>3.2</ele>
        <time>2019-05-11T11:22:45Z</time>
      </trkpt>
      <trkpt lat="51.233906349717" lon="4.471345174474">
        <ele>1.4</ele>
        <time>2019-05-11T11:22:59Z</time>
      </trkpt>
      <trkpt lat="51.233844407476" lon="4.471238975801">
        <ele>2.8</ele>
        <time>2019-05-11T11:23:09Z</time>
      </trkpt>
      <trkpt lat="51.233753631499" lon="4.470988608448">
        <ele>1.4</ele>
        <time>2019-05-11T11:23:30Z</time>
      </trkpt>
      <trkpt lat="51.233520447041" lon="4.470364659812">
        <ele>1.8</ele>
        <time>2019-05-11T11:24:12Z</time>
      </trkpt>
      <trkpt lat="51.233249208757" lon="4.469805838539">
        <ele>6.8</ele>
        <time>2019-05-11T11:24:53Z</time>
      </trkpt>
      <trkpt lat="51.233084755879" lon="4.469416583103">
        <ele>13.8</ele>
        <time>2019-05-11T11:25:21Z</time>
      </trkpt>
      <trkpt lat="51.233081067843" lon="4.469360759649">
        <ele>13.2</ele>
        <time>2019-05-11T11:25:25Z</time>
      </trkpt>
      <trkpt lat="51.233024406199" lon="4.46922991819">
        <ele>12.8</ele>
        <time>2019-05-11T11:25:35Z</time>
      </trkpt>
      <trkpt lat="51.232778816529" lon="4.468630863797">
        <ele>11.2</ele>
        <time>2019-05-11T11:26:14Z</time>
      </trkpt>
      <trkpt lat="51.232574549626" lon="4.468166674175">
        <ele>9.8</ele>
        <time>2019-05-11T11:26:51Z</time>
      </trkpt>
      <trkpt lat="51.232372378198" lon="4.467725115683">
        <ele>16.8</ele>
        <time>2019-05-11T11:27:24Z</time>
      </trkpt>
      <trkpt lat="51.232254444865" lon="4.467506096636">
        <ele>13</ele>
        <time>2019-05-11T11:27:40Z</time>
      </trkpt>
      <trkpt lat="51.232174313901" lon="4.467389504407">
        <ele>4</ele>
        <time>2019-05-11T11:27:50Z</time>
      </trkpt>
      <trkpt lat="51.232117736076" lon="4.467240977139">
        <ele>2.8</ele>
        <time>2019-05-11T11:28:02Z</time>
      </trkpt>
      <trkpt lat="51.231985972608" lon="4.467092785147">
        <ele>5</ele>
        <time>2019-05-11T11:28:20Z</time>
      </trkpt>
      <trkpt lat="51.231926628756" lon="4.467172329378">
        <ele>14</ele>
        <time>2019-05-11T11:28:30Z</time>
      </trkpt>
      <trkpt lat="51.231485992273" lon="4.467194876689">
        <ele>0</ele>
        <time>2019-05-11T11:29:10Z</time>
      </trkpt>
      <trkpt lat="51.23105709045" lon="4.46725262798">
        <ele>0</ele>
        <time>2019-05-11T11:29:52Z</time>
      </trkpt>
      <trkpt lat="51.230989029422" lon="4.467290095073">
        <ele>0</ele>
        <time>2019-05-11T11:30:00Z</time>
      </trkpt>
      <trkpt lat="51.230927757733" lon="4.467308199977">
        <ele>0</ele>
        <time>2019-05-11T11:30:07Z</time>
      </trkpt>
      <trkpt lat="51.2308098244" lon="4.467293364014">
        <ele>2.6</ele>
        <time>2019-05-11T11:30:19Z</time>
      </trkpt>
      <trkpt lat="51.23077378223" lon="4.466581908342">
        <ele>6.2</ele>
        <time>2019-05-11T11:31:01Z</time>
      </trkpt>
      <trkpt lat="51.230797167731" lon="4.466192820544">
        <ele>9</ele>
        <time>2019-05-11T11:31:24Z</time>
      </trkpt>
      <trkpt lat="51.230797000093" lon="4.466096093418">
        <ele>8.8</ele>
        <time>2019-05-11T11:31:30Z</time>
      </trkpt>
      <trkpt lat="51.230794569342" lon="4.466062733456">
        <ele>8.8</ele>
        <time>2019-05-11T11:31:32Z</time>
      </trkpt>
      <trkpt lat="51.230800436672" lon="4.465937591689">
        <ele>9.6</ele>
        <time>2019-05-11T11:31:40Z</time>
      </trkpt>
      <trkpt lat="51.230789456383" lon="4.46522756094">
        <ele>4.2</ele>
        <time>2019-05-11T11:32:26Z</time>
      </trkpt>
      <trkpt lat="51.230765316511" lon="4.46502388077">
        <ele>9</ele>
        <time>2019-05-11T11:32:41Z</time>
      </trkpt>
      <trkpt lat="51.230708487229" lon="4.464740069636">
        <ele>8.6</ele>
        <time>2019-05-11T11:32:59Z</time>
      </trkpt>
      <trkpt lat="51.230648472825" lon="4.464521888779">
        <ele>10.6</ele>
        <time>2019-05-11T11:33:16Z</time>
      </trkpt>
      <trkpt lat="51.230615029044" lon="4.464431950992">
        <ele>10.6</ele>
        <time>2019-05-11T11:33:24Z</time>
      </trkpt>
      <trkpt lat="51.230448648329" lon="4.463840691766">
        <ele>8.6</ele>
        <time>2019-05-11T11:34:05Z</time>
      </trkpt>
      <trkpt lat="51.23024488434" lon="4.463184137539">
        <ele>0</ele>
        <time>2019-05-11T11:34:49Z</time>
      </trkpt>
      <trkpt lat="51.23012837593" lon="4.462743081961">
        <ele>0</ele>
        <time>2019-05-11T11:35:22Z</time>
      </trkpt>
      <trkpt lat="51.22994481232" lon="4.462084096983">
        <ele>4</ele>
        <time>2019-05-11T11:36:07Z</time>
      </trkpt>
      <trkpt lat="51.229791088274" lon="4.461635581514">
        <ele>0</ele>
        <time>2019-05-11T11:36:41Z</time>
      </trkpt>
      <trkpt lat="51.229723362522" lon="4.461402564694">
        <ele>1.8</ele>
        <time>2019-05-11T11:36:59Z</time>
      </trkpt>
      <trkpt lat="51.229638370056" lon="4.461069048893">
        <ele>4.6</ele>
        <time>2019-05-11T11:37:21Z</time>
      </trkpt>
      <trkpt lat="51.229954954419" lon="4.460836199711">
        <ele>7.2</ele>
        <time>2019-05-11T11:37:54Z</time>
      </trkpt>
      <trkpt lat="51.230387795735" lon="4.460722541147">
        <ele>18.4</ele>
        <time>2019-05-11T11:38:27Z</time>
      </trkpt>
      <trkpt lat="51.230600612176" lon="4.460589352756">
        <ele>15.6</ele>
        <time>2019-05-11T11:38:51Z</time>
      </trkpt>
      <trkpt lat="51.230535568632" lon="4.459884854061">
        <ele>5.2</ele>
        <time>2019-05-11T11:39:37Z</time>
      </trkpt>
      <trkpt lat="51.230540094858" lon="4.459844369484">
        <ele>5</ele>
        <time>2019-05-11T11:39:39Z</time>
      </trkpt>
      <trkpt lat="51.230500197014" lon="4.459569107888">
        <ele>4.8</ele>
        <time>2019-05-11T11:39:57Z</time>
      </trkpt>
      <trkpt lat="51.230457868419" lon="4.459350927031">
        <ele>4.2</ele>
        <time>2019-05-11T11:40:27Z</time>
      </trkpt>
      <trkpt lat="51.230432219805" lon="4.45924456072">
        <ele>1.8</ele>
        <time>2019-05-11T11:40:38Z</time>
      </trkpt>
      <trkpt lat="51.230323171286" lon="4.459055381237">
        <ele>0</ele>
        <time>2019-05-11T11:40:57Z</time>
      </trkpt>
      <trkpt lat="51.229987392372" lon="4.458876176215">
        <ele>0</ele>
        <time>2019-05-11T11:41:34Z</time>
      </trkpt>
      <trkpt lat="51.229910278892" lon="4.458422044873">
        <ele>2</ele>
        <time>2019-05-11T11:41:59Z</time>
      </trkpt>
      <trkpt lat="51.229719255391" lon="4.458071346177">
        <ele>0</ele>
        <time>2019-05-11T11:42:54Z</time>
      </trkpt>
      <trkpt lat="51.22976292509" lon="4.458046032839">
        <ele>6.2</ele>
        <time>2019-05-11T11:46:03Z</time>
      </trkpt>
      <trkpt lat="51.229759488511" lon="4.4579302788">
        <ele>28.6</ele>
        <time>2019-05-11T11:47:41Z</time>
      </trkpt>
      <trkpt lat="51.22978136527" lon="4.457915861932">
        <ele>26.2</ele>
        <time>2019-05-11T11:48:16Z</time>
      </trkpt>
      <trkpt lat="51.229782287279" lon="4.457924160013">
        <ele>25</ele>
        <time>2019-05-11T11:48:38Z</time>
      </trkpt>
      <trkpt lat="51.229796536509" lon="4.457924495289">
        <ele>21.6</ele>
        <time>2019-05-11T11:49:07Z</time>
      </trkpt>
      <trkpt lat="51.22982327477" lon="4.457690975555">
        <ele>8.4</ele>
        <time>2019-05-11T11:50:05Z</time>
      </trkpt>
      <trkpt lat="51.229753118267" lon="4.456953871269">
        <ele>11</ele>
        <time>2019-05-11T11:50:52Z</time>
      </trkpt>
      <trkpt lat="51.229729565128" lon="4.456845074207">
        <ele>13.4</ele>
        <time>2019-05-11T11:50:59Z</time>
      </trkpt>
      <trkpt lat="51.229777341958" lon="4.456642316046">
        <ele>16.8</ele>
        <time>2019-05-11T11:51:23Z</time>
      </trkpt>
      <trkpt lat="51.230218648993" lon="4.456554473734">
        <ele>18.6</ele>
        <time>2019-05-11T11:52:02Z</time>
      </trkpt>
      <trkpt lat="51.230666661548" lon="4.45647769553">
        <ele>25</ele>
        <time>2019-05-11T11:52:41Z</time>
      </trkpt>
      <trkpt lat="51.231041332478" lon="4.456120542771">
        <ele>10.4</ele>
        <time>2019-05-11T11:53:18Z</time>
      </trkpt>
      <trkpt lat="51.231101011606" lon="4.455862296432">
        <ele>3</ele>
        <time>2019-05-11T11:53:32Z</time>
      </trkpt>
      <trkpt lat="51.231108974411" lon="4.455824074968">
        <ele>2.2</ele>
        <time>2019-05-11T11:53:56Z</time>
      </trkpt>
      <trkpt lat="51.231111740438" lon="4.455811585937">
        <ele>0.6</ele>
        <time>2019-05-11T11:54:05Z</time>
      </trkpt>
      <trkpt lat="51.231133281921" lon="4.455808903729">
        <ele>1.4</ele>
        <time>2019-05-11T11:54:10Z</time>
      </trkpt>
      <trkpt lat="51.231251885806" lon="4.455896494584">
        <ele>3.2</ele>
        <time>2019-05-11T11:54:23Z</time>
      </trkpt>
      <trkpt lat="51.23130603288" lon="4.455791469377">
        <ele>5.4</ele>
        <time>2019-05-11T11:54:33Z</time>
      </trkpt>
      <trkpt lat="51.231208886659" lon="4.455452170065">
        <ele>6</ele>
        <time>2019-05-11T11:54:52Z</time>
      </trkpt>
      <trkpt lat="51.231127246953" lon="4.454746162628">
        <ele>7.8</ele>
        <time>2019-05-11T11:55:32Z</time>
      </trkpt>
      <trkpt lat="51.231013839846" lon="4.454047866539">
        <ele>11</ele>
        <time>2019-05-11T11:56:11Z</time>
      </trkpt>
      <trkpt lat="51.23090034892" lon="4.453365663698">
        <ele>7.6</ele>
        <time>2019-05-11T11:56:54Z</time>
      </trkpt>
      <trkpt lat="51.230769256004" lon="4.45266896017">
        <ele>11.2</ele>
        <time>2019-05-11T11:57:35Z</time>
      </trkpt>
      <trkpt lat="51.230671774507" lon="4.451952559177">
        <ele>10.4</ele>
        <time>2019-05-11T11:58:16Z</time>
      </trkpt>
      <trkpt lat="51.230511680217" lon="4.451288042145">
        <ele>7.6</ele>
        <time>2019-05-11T11:58:52Z</time>
      </trkpt>
      <trkpt lat="51.230376144894" lon="4.450788229448">
        <ele>10</ele>
        <time>2019-05-11T11:59:29Z</time>
      </trkpt>
      <trkpt lat="51.229938022981" lon="4.450977073655">
        <ele>12.2</ele>
        <time>2019-05-11T12:00:12Z</time>
      </trkpt>
      <trkpt lat="51.229678603176" lon="4.450832402061">
        <ele>8.8</ele>
        <time>2019-05-11T12:00:41Z</time>
      </trkpt>
      <trkpt lat="51.229507528597" lon="4.450170231961">
        <ele>7.6</ele>
        <time>2019-05-11T12:01:18Z</time>
      </trkpt>
      <trkpt lat="51.229365203935" lon="4.449479311944">
        <ele>4.6</ele>
        <time>2019-05-11T12:02:00Z</time>
      </trkpt>
      <trkpt lat="51.229227740775" lon="4.448796606189">
        <ele>8.2</ele>
        <time>2019-05-11T12:02:43Z</time>
      </trkpt>
      <trkpt lat="51.229054989816" lon="4.448546657931">
        <ele>8.2</ele>
        <time>2019-05-11T12:03:13Z</time>
      </trkpt>
      <trkpt lat="51.229020456388" lon="4.44868588129">
        <ele>6.6</ele>
        <time>2019-05-11T12:03:25Z</time>
      </trkpt>
      <trkpt lat="51.228977876336" lon="4.448687222394">
        <ele>13.6</ele>
        <time>2019-05-11T12:04:05Z</time>
      </trkpt>
      <trkpt lat="51.228951054256" lon="4.448781518769">
        <ele>14</ele>
        <time>2019-05-11T12:04:13Z</time>
      </trkpt>
      <trkpt lat="51.228631620047" lon="4.449271021729">
        <ele>0</ele>
        <time>2019-05-11T12:04:54Z</time>
      </trkpt>
      <trkpt lat="51.228620555939" lon="4.449276134688">
        <ele>0.4</ele>
        <time>2019-05-11T12:04:55Z</time>
      </trkpt>
      <trkpt lat="51.228524331727" lon="4.449308488822">
        <ele>0</ele>
        <time>2019-05-11T12:05:39Z</time>
      </trkpt>
      <trkpt lat="51.228624495432" lon="4.449225843288">
        <ele>0</ele>
        <time>2019-05-11T12:05:54Z</time>
      </trkpt>
      <trkpt lat="51.228653664444" lon="4.449193405335">
        <ele>0.2</ele>
        <time>2019-05-11T12:05:58Z</time>
      </trkpt>
      <trkpt lat="51.228903445064" lon="4.448709602067">
        <ele>0.8</ele>
        <time>2019-05-11T12:06:58Z</time>
      </trkpt>
      <trkpt lat="51.228960693441" lon="4.448610025095">
        <ele>0.6</ele>
        <time>2019-05-11T12:07:08Z</time>
      </trkpt>
      <trkpt lat="51.229009979013" lon="4.448548501949">
        <ele>2.8</ele>
        <time>2019-05-11T12:07:19Z</time>
      </trkpt>
    </trkseg>
  </trk>
</gpx>